Lake Elmo, Minnesota
Current Conditions -  °F | °C
As of 9:31 PM on Monday 20 Oct 2014 (Local Time) from K21D Reporting Station
Clear Clear  
Wind Chill: 46°   Ceiling: Unl
Heat Index: 46°   Visibility: 10mi
Dew Point: 41°   Wind: 3mph
Humidity: 81%   Direction: 50°NE
Pressure: 30.07"   Gusts: NA
Location:  45°N, 92.88°W
Report Text: K21D 210231Z AUTO 05003KT 10SM CLR 08/05 A3007 RMK AO2
Loading
Personal Weather Stations






























Interactive Weather Map
Tropical Storm Tracking
New forecast layout! Learn more

10-Day Weather Forecast

Advertisements
Track Severe Weather on mobile